Time;durP1;ratioP1;P1;durP2;ratioP2;P2;SDS_P1;SDS_P2;PMS_P1;PMS_P2;Temp;Humidity;BMP_temperature;BMP_pressure;BME280_temperature;BME280_humidity;BME280_pressure;Samples;Min_cycle;Max_cycle;Signal;HPM_P1;HPM_P2
2021/05/11 00:00:35;;;;;;;0.68;0.10;;;24.80;39.90;;;;;;5036670;28;20037;-49
2021/05/11 00:03:01;;;;;;;0.38;0.10;;;24.80;40.00;;;;;;5049212;28;20020;-47
2021/05/11 00:05:29;;;;;;;0.95;0.22;;;24.80;39.90;;;;;;5047472;28;20555;-46
2021/05/11 00:07:56;;;;;;;0.40;0.20;;;24.80;40.00;;;;;;5041997;28;20547;-46
2021/05/11 00:10:23;;;;;;;0.38;0.10;;;24.80;40.00;;;;;;5047328;28;20084;-49
2021/05/11 00:12:50;;;;;;;0.20;0.10;;;24.80;39.90;;;;;;5043861;28;20021;-45
2021/05/11 00:15:16;;;;;;;0.40;0.10;;;24.80;40.00;;;;;;5047107;28;20047;-50
2021/05/11 00:17:44;;;;;;;0.40;0.10;;;24.80;40.00;;;;;;5048649;28;20063;-48
2021/05/11 00:20:11;;;;;;;0.80;0.20;;;24.80;39.90;;;;;;5045314;28;20025;-47
2021/05/11 00:22:37;;;;;;;0.20;0.10;;;24.80;39.90;;;;;;5043415;28;20542;-48
2021/05/11 00:25:04;;;;;;;0.30;0.10;;;24.80;39.90;;;;;;5046749;28;20090;-50
2021/05/11 00:27:30;;;;;;;1.42;0.22;;;24.80;39.90;;;;;;5047601;28;20456;-49
2021/05/11 00:29:56;;;;;;;0.70;0.20;;;24.80;39.90;;;;;;5047974;28;20024;-50
2021/05/11 00:32:22;;;;;;;0.43;0.20;;;24.80;39.90;;;;;;5047467;28;20545;-49
2021/05/11 00:34:48;;;;;;;0.30;0.10;;;24.80;39.90;;;;;;5046368;28;20649;-50
2021/05/11 00:37:13;;;;;;;0.57;0.10;;;24.80;39.90;;;;;;5047602;28;20049;-47
2021/05/11 00:39:39;;;;;;;0.40;0.10;;;24.80;40.00;;;;;;5046066;28;20023;-48
2021/05/11 00:42:06;;;;;;;0.20;0.10;;;24.70;39.90;;;;;;5046449;28;20040;-47
2021/05/11 00:44:31;;;;;;;0.30;0.10;;;24.80;39.90;;;;;;5039120;28;20477;-47
2021/05/11 00:47:00;;;;;;;0.40;0.10;;;24.70;39.90;;;;;;5047935;28;20048;-49
2021/05/11 00:49:27;;;;;;;0.30;0.10;;;24.70;39.90;;;;;;5048641;28;20021;-47
2021/05/11 00:51:53;;;;;;;0.93;0.10;;;24.70;39.90;;;;;;5042183;28;20036;-45
2021/05/11 00:54:20;;;;;;;0.40;0.10;;;24.70;39.90;;;;;;5047047;28;20025;-48
2021/05/11 00:56:47;;;;;;;0.28;0.10;;;24.70;39.80;;;;;;5029341;28;20067;-47
2021/05/11 00:59:19;;;;;;;0.95;0.20;;;24.70;39.90;;;;;;5045190;28;20028;-47
2021/05/11 01:01:45;;;;;;;1.52;0.20;;;24.60;39.80;;;;;;5046493;28;20036;-47
2021/05/11 01:04:12;;;;;;;0.50;0.17;;;24.70;39.90;;;;;;5046512;28;20482;-48
2021/05/11 01:06:38;;;;;;;0.98;0.10;;;24.70;39.80;;;;;;5043393;28;20274;-47
2021/05/11 01:09:05;;;;;;;0.40;0.13;;;24.70;39.90;;;;;;5048441;28;20028;-49
2021/05/11 01:11:32;;;;;;;0.88;0.10;;;24.70;39.80;;;;;;5044233;28;20038;-48
2021/05/11 01:13:58;;;;;;;1.52;0.10;;;24.60;39.90;;;;;;5047628;28;20123;-49
2021/05/11 01:16:26;;;;;;;0.28;0.10;;;24.60;39.80;;;;;;5039857;28;20084;-48
2021/05/11 01:18:55;;;;;;;0.40;0.10;;;24.60;39.90;;;;;;5042972;28;20105;-47
2021/05/11 01:29:21;;;;;;;0.32;0.10;;;24.60;39.80;;;;;;5041997;28;20273;-48
2021/05/11 01:45:59;;;;;;;0.63;0.10;;;24.60;39.80;;;;;;5043254;28;20029;-47
2021/05/11 02:22:37;;;;;;;0.20;0.10;;;24.50;39.80;;;;;;5030061;28;20017;-49
2021/05/11 02:23:35;;;;;;;0.17;0.08;;;24.50;39.80;;;;;;5031792;28;20112;-48
2021/05/11 02:26:03;;;;;;;0.32;0.10;;;24.50;39.90;;;;;;5025913;28;20101;-51
2021/05/11 02:28:29;;;;;;;0.28;0.10;;;24.50;39.90;;;;;;5032433;28;20423;-49
2021/05/11 02:30:55;;;;;;;0.35;0.00;;;24.50;39.80;;;;;;5026326;28;20048;-48
2021/05/11 02:33:21;;;;;;;0.17;0.00;;;24.50;39.80;;;;;;5035533;28;20026;-50
2021/05/11 02:35:48;;;;;;;0.30;0.10;;;24.50;39.80;;;;;;5030607;28;20025;-50
2021/05/11 02:38:14;;;;;;;0.32;0.10;;;24.50;39.90;;;;;;5042565;28;20052;-49
2021/05/11 02:40:40;;;;;;;0.47;0.00;;;24.50;39.90;;;;;;5026918;28;20035;-49
2021/05/11 02:43:12;;;;;;;0.20;0.10;;;24.50;39.80;;;;;;5038113;28;20029;-49
2021/05/11 02:45:38;;;;;;;0.28;0.10;;;24.40;39.80;;;;;;5021370;28;20517;-50
2021/05/11 02:48:05;;;;;;;0.28;0.10;;;24.50;39.90;;;;;;5028572;28;20035;-50
2021/05/11 02:50:32;;;;;;;0.20;0.08;;;24.50;39.90;;;;;;5025829;28;20141;-50
2021/05/11 02:52:58;;;;;;;0.20;0.10;;;24.50;39.90;;;;;;5017447;28;20029;-49
2021/05/11 02:55:24;;;;;;;0.10;0.00;;;24.40;39.80;;;;;;5029289;28;20029;-51
2021/05/11 02:57:52;;;;;;;0.28;0.10;;;24.40;39.80;;;;;;5032518;28;20060;-50
2021/05/11 03:00:19;;;;;;;0.90;0.00;;;24.40;40.30;;;;;;5033534;28;20152;-49
2021/05/11 03:02:45;;;;;;;0.57;0.10;;;24.40;39.90;;;;;;5028132;28;20021;-49
2021/05/11 03:05:13;;;;;;;0.17;0.00;;;24.40;39.80;;;;;;5038122;28;20044;-50
2021/05/11 03:07:38;;;;;;;0.20;0.10;;;24.40;39.80;;;;;;5019410;28;20068;-50
2021/05/11 03:10:06;;;;;;;0.20;0.00;;;24.40;39.80;;;;;;5030992;28;20109;-49
2021/05/11 03:12:33;;;;;;;0.10;0.05;;;24.40;39.80;;;;;;5029634;28;20030;-50
2021/05/11 03:14:59;;;;;;;0.30;0.00;;;24.40;39.80;;;;;;5019456;28;20022;-50
2021/05/11 03:17:26;;;;;;;0.10;0.00;;;24.40;39.80;;;;;;5024368;28;20030;-49
2021/05/11 03:19:52;;;;;;;0.10;0.00;;;24.40;39.80;;;;;;5017625;28;20028;-48
2021/05/11 03:22:18;;;;;;;0.28;0.08;;;24.40;39.90;;;;;;5030481;28;20130;-50
2021/05/11 03:24:45;;;;;;;0.35;0.03;;;24.40;39.80;;;;;;5025617;28;20499;-50
2021/05/11 03:27:12;;;;;;;0.10;0.00;;;24.40;39.80;;;;;;5038653;28;20033;-50
2021/05/11 03:29:39;;;;;;;0.65;0.10;;;24.40;39.80;;;;;;5034784;28;20025;-49
2021/05/11 03:32:05;;;;;;;0.10;0.00;;;24.30;39.80;;;;;;5028702;28;20048;-49
2021/05/11 03:34:31;;;;;;;0.17;0.00;;;24.30;39.80;;;;;;5028452;28;20057;-49
2021/05/11 03:36:57;;;;;;;0.10;0.00;;;24.30;39.80;;;;;;5034046;28;20783;-50
2021/05/11 03:39:23;;;;;;;0.10;0.00;;;24.30;39.80;;;;;;5034489;28;20017;-49
2021/05/11 03:41:54;;;;;;;0.20;0.10;;;24.30;39.80;;;;;;5024937;28;20108;-50
2021/05/11 03:44:26;;;;;;;0.93;0.05;;;24.30;39.80;;;;;;5025919;28;20029;-51
2021/05/11 03:46:53;;;;;;;0.20;0.00;;;24.30;39.80;;;;;;5025463;28;20034;-47
2021/05/11 03:49:19;;;;;;;0.20;0.10;;;24.30;39.80;;;;;;5033831;28;20031;-50
2021/05/11 03:51:45;;;;;;;0.52;0.10;;;24.30;39.80;;;;;;5024911;28;20033;-48
2021/05/11 03:54:11;;;;;;;0.17;0.10;;;24.30;39.80;;;;;;5028278;28;20087;-49
2021/05/11 03:56:37;;;;;;;0.20;0.10;;;24.30;39.80;;;;;;5019817;28;20076;-53
2021/05/11 03:59:04;;;;;;;0.73;0.00;;;24.30;39.80;;;;;;5038173;28;20031;-53
2021/05/11 04:01:31;;;;;;;0.40;0.10;;;24.30;39.80;;;;;;5010868;28;20129;-50
2021/05/11 04:03:57;;;;;;;0.10;0.00;;;24.30;39.80;;;;;;5013898;28;20503;-48
2021/05/11 04:06:23;;;;;;;0.20;0.00;;;24.30;39.80;;;;;;5021894;28;20025;-48
2021/05/11 04:08:59;;;;;;;0.30;0.00;;;24.30;39.80;;;;;;5029100;28;20033;-51
2021/05/11 04:16:09;;;;;;;0.30;0.03;;;24.30;39.80;;;;;;5028789;28;20218;-52
2021/05/11 04:17:08;;;;;;;0.80;0.10;;;24.30;39.80;;;;;;5021800;28;20104;-52
2021/05/11 04:19:35;;;;;;;0.05;0.00;;;24.30;39.80;;;;;;5035250;28;20108;-52
2021/05/11 04:22:02;;;;;;;0.50;0.08;;;24.30;39.80;;;;;;5030076;28;20039;-49
2021/05/11 04:24:28;;;;;;;0.10;0.00;;;24.30;39.80;;;;;;5031293;28;20029;-49
2021/05/11 04:26:55;;;;;;;0.20;0.10;;;24.30;39.80;;;;;;5026921;28;20060;-49
2021/05/11 04:29:21;;;;;;;0.20;0.00;;;24.30;39.80;;;;;;5033243;28;20033;-47
2021/05/11 04:31:47;;;;;;;0.20;0.00;;;24.30;39.80;;;;;;5024367;28;20018;-50
2021/05/11 04:34:13;;;;;;;0.57;0.00;;;24.30;39.80;;;;;;5031692;28;20474;-48
2021/05/11 04:36:39;;;;;;;0.30;0.10;;;24.30;39.90;;;;;;5025966;28;20486;-49
2021/05/11 04:39:06;;;;;;;0.30;0.00;;;24.30;39.80;;;;;;5023604;28;20053;-50
2021/05/11 04:41:32;;;;;;;0.10;0.00;;;24.30;39.80;;;;;;5029927;28;20510;-50
2021/05/11 04:44:02;;;;;;;0.20;0.05;;;24.30;39.80;;;;;;5029913;28;20037;-49
2021/05/11 04:46:41;;;;;;;0.40;0.00;;;24.20;39.80;;;;;;5017978;28;20026;-51
2021/05/11 04:49:07;;;;;;;0.45;0.10;;;24.20;39.80;;;;;;5027911;28;20057;-48
2021/05/11 04:51:33;;;;;;;0.25;0.00;;;24.20;39.80;;;;;;5031640;28;20026;-50
2021/05/11 04:53:59;;;;;;;0.28;0.03;;;24.20;39.80;;;;;;5025845;28;20029;-50
2021/05/11 04:56:25;;;;;;;0.10;0.00;;;24.20;39.80;;;;;;5017878;28;20119;-49
2021/05/11 04:58:51;;;;;;;0.52;0.10;;;24.20;39.80;;;;;;5035044;28;20029;-49
2021/05/11 05:01:17;;;;;;;0.15;0.00;;;24.20;39.70;;;;;;5018646;28;20026;-50
2021/05/11 05:03:47;;;;;;;0.20;0.10;;;24.20;39.80;;;;;;5027647;28;20022;-51
2021/05/11 05:06:12;;;;;;;0.25;0.03;;;24.20;39.80;;;;;;5026596;28;20040;-50
2021/05/11 05:08:38;;;;;;;2.15;0.00;;;24.20;39.80;;;;;;5037150;28;20025;-49
2021/05/11 05:11:04;;;;;;;0.68;0.00;;;24.20;39.80;;;;;;5029137;28;20045;-50
2021/05/11 05:13:31;;;;;;;0.70;0.10;;;24.20;39.80;;;;;;5027747;28;20029;-50
2021/05/11 05:15:58;;;;;;;0.30;0.10;;;24.20;39.70;;;;;;5017967;28;20048;-51
2021/05/11 05:18:27;;;;;;;0.10;0.00;;;24.20;39.80;;;;;;5023662;28;20021;-49
2021/05/11 05:20:53;;;;;;;0.10;0.00;;;24.20;39.80;;;;;;5027129;28;20177;-50
2021/05/11 05:23:21;;;;;;;0.50;0.10;;;24.20;39.90;;;;;;5018693;28;20036;-48
2021/05/11 05:25:54;;;;;;;0.35;0.00;;;24.20;39.90;;;;;;5007467;28;20030;-47
2021/05/11 05:28:21;;;;;;;0.10;0.00;;;24.20;40.00;;;;;;5012654;28;20021;-49
2021/05/11 05:30:46;;;;;;;1.10;0.00;;;24.20;40.00;;;;;;5025000;28;20060;-50
2021/05/11 05:33:12;;;;;;;0.10;0.00;;;24.20;40.20;;;;;;5024997;28;20034;-50
2021/05/11 05:35:38;;;;;;;0.32;0.10;;;24.20;40.30;;;;;;5025914;28;20130;-48
2021/05/11 05:38:05;;;;;;;0.43;0.00;;;24.20;40.40;;;;;;5027545;28;20033;-49
2021/05/11 05:40:34;;;;;;;0.25;0.05;;;24.20;40.30;;;;;;5028615;28;20021;-49
2021/05/11 05:42:59;;;;;;;0.40;0.03;;;24.20;40.30;;;;;;5020305;28;20032;-51
2021/05/11 05:45:25;;;;;;;0.20;0.00;;;24.20;40.30;;;;;;5017271;28;20671;-50
2021/05/11 05:47:51;;;;;;;0.35;0.10;;;24.20;40.30;;;;;;5021516;28;20026;-50
2021/05/11 05:50:23;;;;;;;0.57;0.10;;;24.20;40.90;;;;;;5028542;28;20040;-48
2021/05/11 05:52:53;;;;;;;0.43;0.15;;;24.20;40.40;;;;;;5023760;28;20104;-50
2021/05/11 05:55:19;;;;;;;1.13;0.10;;;24.20;40.40;;;;;;5032384;28;20372;-50
2021/05/11 05:57:45;;;;;;;0.50;0.10;;;24.20;40.40;;;;;;5029370;28;20021;-50
2021/05/11 06:00:15;;;;;;;1.27;0.10;;;24.20;40.30;;;;;;5039923;28;20032;-50
2021/05/11 06:02:47;;;;;;;0.20;0.08;;;24.20;40.40;;;;;;5031579;28;20034;-51
2021/05/11 06:05:14;;;;;;;0.40;0.10;;;24.20;40.40;;;;;;5019013;28;20116;-49
2021/05/11 06:07:40;;;;;;;0.20;0.10;;;24.20;40.30;;;;;;5024306;28;20034;-49
2021/05/11 06:10:09;;;;;;;1.58;0.10;;;24.20;40.30;;;;;;5029847;28;20036;-49
2021/05/11 06:12:50;;;;;;;1.33;0.10;;;24.20;40.20;;;;;;5029978;28;20482;-48
2021/05/11 06:18:01;;;;;;;1.55;0.10;;;24.20;40.10;;;;;;5013977;28;20282;-52
2021/05/11 06:20:27;;;;;;;0.35;0.10;;;24.20;40.10;;;;;;5021251;28;20033;-50
2021/05/11 06:22:52;;;;;;;1.33;0.10;;;24.20;40.10;;;;;;5024336;28;20090;-48
2021/05/11 06:25:18;;;;;;;0.40;0.10;;;24.20;40.10;;;;;;5032048;28;20887;-49
2021/05/11 06:27:44;;;;;;;0.50;0.10;;;24.20;40.00;;;;;;5032894;28;20104;-50
2021/05/11 06:30:11;;;;;;;0.25;0.10;;;24.20;40.10;;;;;;5027910;28;20095;-49
2021/05/11 06:32:37;;;;;;;0.40;0.10;;;24.20;40.10;;;;;;5021394;28;20043;-47
2021/05/11 06:35:06;;;;;;;0.60;0.20;;;24.20;40.00;;;;;;5025217;28;20087;-49
2021/05/11 06:37:32;;;;;;;0.47;0.17;;;24.20;40.00;;;;;;5016280;28;20025;-48
2021/05/11 06:39:59;;;;;;;0.43;0.05;;;24.20;40.00;;;;;;5034592;28;20097;-49
2021/05/11 06:42:27;;;;;;;0.47;0.10;;;24.20;40.00;;;;;;5024561;28;20041;-49
2021/05/11 06:47:32;;;;;;;1.55;0.30;;;24.20;40.00;;;;;;5012445;28;20635;-49
2021/05/11 06:55:02;;;;;;;1.92;0.17;;;24.20;40.00;;;;;;5008505;28;20497;-49
2021/05/11 06:57:28;;;;;;;0.73;0.10;;;24.20;40.00;;;;;;5021706;28;20041;-50
2021/05/11 06:59:54;;;;;;;0.50;0.10;;;24.20;40.00;;;;;;5026031;28;20021;-49
2021/05/11 07:02:20;;;;;;;0.20;0.10;;;24.20;40.00;;;;;;5030166;28;20029;-49
2021/05/11 07:04:49;;;;;;;0.55;0.10;;;24.20;40.00;;;;;;5039753;28;20060;-49
2021/05/11 07:07:16;;;;;;;1.02;0.30;;;24.20;40.30;;;;;;5031039;28;20132;-50
2021/05/11 07:14:33;;;;;;;3.35;0.28;;;24.20;40.10;;;;;;5020060;28;20025;-44
2021/05/11 07:16:59;;;;;;;2.20;0.17;;;24.30;40.00;;;;;;5023404;28;20013;-48
2021/05/11 07:19:25;;;;;;;1.95;0.20;;;24.30;40.00;;;;;;5004419;28;20502;-49
2021/05/11 07:21:51;;;;;;;0.47;0.10;;;24.30;40.00;;;;;;5025717;28;20611;-47
2021/05/11 07:24:19;;;;;;;1.08;0.20;;;24.30;40.10;;;;;;5029774;28;20496;-48
2021/05/11 07:27:17;;;;;;;1.08;0.20;;;24.30;40.10;;;;;;5024573;28;20025;-48
2021/05/11 07:32:13;;;;;;;0.95;0.20;;;24.40;40.20;;;;;;5021259;28;20489;-51
2021/05/11 07:34:43;;;;;;;0.40;0.20;;;24.40;40.30;;;;;;5025967;28;20113;-47
2021/05/11 07:37:10;;;;;;;2.90;0.30;;;24.40;40.30;;;;;;5023318;28;20033;-48
2021/05/11 07:39:38;;;;;;;1.23;0.20;;;24.40;40.30;;;;;;5027098;28;20048;-46
2021/05/11 07:42:05;;;;;;;0.40;0.10;;;24.50;40.30;;;;;;5025873;28;20029;-49
2021/05/11 07:44:33;;;;;;;1.33;0.10;;;24.50;40.40;;;;;;5027740;28;20029;-47
2021/05/11 08:06:12;;;;;;;2.90;0.30;;;24.50;40.70;;;;;;5029787;28;20018;-49
2021/05/11 08:16:40;;;;;;;1.63;0.10;;;24.60;40.70;;;;;;5026562;28;20056;-50
2021/05/11 08:22:12;;;;;;;0.73;0.20;;;24.70;40.80;;;;;;5025151;28;20404;-47
2021/05/11 08:29:52;;;;;;;1.42;0.25;;;24.70;40.80;;;;;;5005173;28;20034;-46
2021/05/11 08:32:18;;;;;;;1.15;0.20;;;24.80;41.00;;;;;;5025816;28;20025;-46
2021/05/11 08:34:45;;;;;;;1.80;0.38;;;24.70;40.90;;;;;;5011922;28;20431;-51
2021/05/11 08:37:16;;;;;;;2.05;0.30;;;24.80;41.10;;;;;;5009343;28;20258;-47
2021/05/11 08:39:42;;;;;;;0.82;0.20;;;24.80;40.90;;;;;;5016630;28;20017;-46
2021/05/11 08:42:08;;;;;;;2.90;0.30;;;24.80;41.00;;;;;;5019149;28;20033;-46
2021/05/11 08:44:35;;;;;;;1.38;0.45;;;24.80;40.90;;;;;;5024636;28;20030;-44
2021/05/11 08:47:01;;;;;;;1.20;0.35;;;24.80;40.90;;;;;;5021570;28;20479;-45
2021/05/11 08:49:40;;;;;;;1.33;0.30;;;24.90;41.80;;;;;;5017217;28;20025;-49
2021/05/11 08:52:18;;;;;;;1.73;0.50;;;24.90;42.00;;;;;;5021315;28;20458;-45
2021/05/11 08:55:04;;;;;;;0.73;0.20;;;24.90;41.90;;;;;;5022074;28;20061;-45
2021/05/11 09:06:20;;;;;;;1.95;0.50;;;25.00;42.10;;;;;;5015060;28;20494;-49
2021/05/11 09:25:28;;;;;;;1.98;0.95;;;25.00;42.10;;;;;;5012519;28;20030;-51
2021/05/11 09:28:04;;;;;;;1.77;0.47;;;24.90;42.50;;;;;;5019172;28;20045;-44
2021/05/11 09:31:19;;;;;;;0.90;0.50;;;24.90;42.70;;;;;;5014175;28;20052;-49
2021/05/11 09:34:18;;;;;;;2.08;0.82;;;25.00;42.20;;;;;;5029404;28;20111;-46
2021/05/11 09:56:38;;;;;;;4.13;0.80;;;25.10;42.40;;;;;;5004988;28;20513;-49
2021/05/11 10:43:50;;;;;;;1.90;0.88;;;25.20;70.50;;;;;;5015109;28;20067;-48
2021/05/11 10:48:35;;;;;;;3.63;1.17;;;25.30;52.10;;;;;;5023754;28;20251;-49
2021/05/11 10:51:19;;;;;;;1.15;0.60;;;25.30;52.10;;;;;;5023292;28;20101;-47
2021/05/11 10:54:02;;;;;;;1.42;0.60;;;25.30;52.10;;;;;;5031507;28;20026;-48
2021/05/11 10:56:32;;;;;;;1.40;0.77;;;25.30;52.00;;;;;;5034112;28;20020;-50
2021/05/11 11:01:51;;;;;;;1.35;0.90;;;25.20;51.70;;;;;;5021811;28;20060;-50
2021/05/11 11:04:22;;;;;;;3.40;1.05;;;25.20;51.80;;;;;;5028846;28;20068;-50
2021/05/11 11:06:58;;;;;;;1.70;0.95;;;25.20;51.70;;;;;;5014938;28;20041;-49
2021/05/11 11:09:25;;;;;;;1.42;0.93;;;25.30;51.80;;;;;;5009305;28;20454;-50
2021/05/11 11:11:51;;;;;;;1.00;0.55;;;25.20;51.60;;;;;;5029171;28;20031;-51
2021/05/11 11:14:17;;;;;;;2.83;0.77;;;25.30;51.70;;;;;;5024548;28;20025;-47
2021/05/11 11:16:44;;;;;;;1.23;0.95;;;25.30;51.70;;;;;;5020608;28;20708;-50
2021/05/11 11:19:12;;;;;;;2.13;1.15;;;25.30;51.70;;;;;;5018213;28;20040;-48
2021/05/11 11:21:59;;;;;;;1.27;1.00;;;25.30;51.60;;;;;;5013514;28;20568;-44
2021/05/11 11:24:38;;;;;;;1.65;1.17;;;25.30;51.60;;;;;;5028429;28;20037;-46
2021/05/11 11:27:04;;;;;;;2.50;1.10;;;25.30;51.70;;;;;;5032870;28;20482;-49
2021/05/11 11:29:31;;;;;;;2.78;0.85;;;25.40;51.70;;;;;;5033407;28;20024;-50
2021/05/11 11:31:57;;;;;;;1.05;0.85;;;25.40;51.70;;;;;;5019042;28;20041;-50
2021/05/11 11:34:35;;;;;;;0.98;0.70;;;25.40;51.60;;;;;;5035111;28;20022;-46
2021/05/11 11:37:05;;;;;;;1.00;0.70;;;25.40;51.70;;;;;;5025447;28;20033;-48
2021/05/11 11:39:32;;;;;;;2.22;0.68;;;25.30;51.70;;;;;;5013780;28;20491;-48
2021/05/11 11:42:01;;;;;;;1.50;0.88;;;25.30;51.70;;;;;;5021745;28;20037;-50
2021/05/11 11:44:33;;;;;;;1.63;0.90;;;25.40;51.70;;;;;;5037001;28;20116;-52
2021/05/11 11:47:10;;;;;;;1.88;1.38;;;25.30;51.70;;;;;;5020283;28;20025;-47
2021/05/11 11:49:42;;;;;;;2.35;1.05;;;25.40;51.80;;;;;;5018659;28;20128;-48
2021/05/11 11:57:48;;;;;;;3.17;1.20;;;25.40;50.20;;;;;;5030008;28;20034;-47
2021/05/11 12:00:24;;;;;;;2.00;0.85;;;25.40;50.10;;;;;;5031055;28;20029;-49
2021/05/11 12:02:52;;;;;;;1.73;1.30;;;25.40;50.20;;;;;;5021384;28;20025;-46
2021/05/11 12:05:19;;;;;;;4.07;1.20;;;25.40;50.30;;;;;;5029108;28;20029;-47
2021/05/11 12:10:21;;;;;;;3.72;1.20;;;25.40;50.40;;;;;;5031112;28;20107;-51
2021/05/11 12:12:47;;;;;;;2.65;1.10;;;25.40;50.50;;;;;;5024133;28;20112;-51
2021/05/11 12:15:19;;;;;;;2.55;1.00;;;25.40;50.40;;;;;;5022187;28;20034;-51
2021/05/11 12:17:47;;;;;;;1.20;0.90;;;25.30;50.30;;;;;;5016506;28;20141;-49
2021/05/11 12:20:24;;;;;;;1.30;0.95;;;25.30;50.40;;;;;;5019619;28;20029;-48
2021/05/11 12:23:21;;;;;;;2.25;1.00;;;25.30;50.50;;;;;;5022354;28;20013;-47
2021/05/11 12:26:05;;;;;;;2.10;1.27;;;25.30;50.50;;;;;;5019863;28;20038;-48
2021/05/11 12:28:36;;;;;;;5.10;1.45;;;25.30;50.60;;;;;;5021852;28;20040;-46
2021/05/11 12:31:03;;;;;;;;;;;25.30;50.50;;;;;;5018001;28;20487;-45
2021/05/11 12:33:43;;;;;;;3.03;1.10;;;25.30;50.40;;;;;;5020463;28;19913;-44
2021/05/11 12:36:27;;;;;;;2.08;1.08;;;25.30;50.40;;;;;;5010652;28;20030;-52
2021/05/11 12:40:02;;;;;;;1.73;1.00;;;25.30;50.40;;;;;;5017982;28;20040;-44
2021/05/11 12:42:18;;;;;;;1.00;0.70;;;25.30;50.40;;;;;;5013417;28;20064;-45
2021/05/11 12:44:45;;;;;;;1.63;1.20;;;25.30;50.40;;;;;;5006314;28;20065;-44
2021/05/11 12:47:15;;;;;;;1.83;1.67;;;25.30;50.30;;;;;;5015056;28;20069;-48
2021/05/11 12:49:41;;;;;;;1.42;0.95;;;25.30;50.30;;;;;;5011106;28;20112;-48
2021/05/11 12:52:09;;;;;;;1.13;0.70;;;25.40;50.30;;;;;;5014101;28;20037;-47
2021/05/11 12:54:45;;;;;;;1.13;1.00;;;25.40;50.40;;;;;;5020895;28;20086;-48
2021/05/11 12:57:24;;;;;;;1.67;0.80;;;25.40;51.00;;;;;;5010866;28;20704;-46
2021/05/11 13:00:12;;;;;;;1.30;0.75;;;25.30;50.40;;;;;;5015319;28;20079;-48
2021/05/11 13:16:28;;;;;;;3.15;1.00;;;25.40;50.50;;;;;;5020448;28;20487;-48
2021/05/11 13:22:03;;;;;;;3.58;0.90;;;25.40;50.60;;;;;;5023401;28;20026;-51
2021/05/11 13:27:22;;;;;;;3.72;1.05;;;25.30;50.60;;;;;;5016524;28;20674;-53
2021/05/11 13:30:05;;;;;;;2.13;0.98;;;25.40;50.70;;;;;;5022769;28;20109;-51
2021/05/11 13:35:00;;;;;;;1.10;0.68;;;25.40;50.60;;;;;;5021968;28;20029;-50
2021/05/11 13:37:28;;;;;;;1.63;0.68;;;25.40;50.60;;;;;;5017706;28;20394;-48
2021/05/11 13:39:55;;;;;;;2.67;0.80;;;25.40;50.70;;;;;;5034019;28;20033;-47
2021/05/11 13:42:22;;;;;;;1.50;1.08;;;25.40;50.70;;;;;;5037625;28;20037;-45
2021/05/11 13:44:53;;;;;;;2.92;0.98;;;25.40;50.80;;;;;;5036991;28;20148;-48
2021/05/11 13:47:20;;;;;;;1.55;0.75;;;25.40;50.70;;;;;;5031652;28;20064;-49
2021/05/11 13:50:00;;;;;;;1.10;0.88;;;25.40;50.70;;;;;;5030610;28;20033;-47
2021/05/11 13:52:27;;;;;;;2.13;1.48;;;25.40;50.80;;;;;;5022614;28;20426;-48
2021/05/11 13:54:57;;;;;;;1.08;0.70;;;25.40;50.80;;;;;;5030133;28;20734;-46
2021/05/11 14:02:50;;;;;;;1.85;1.10;;;25.50;50.60;;;;;;5024324;28;20025;-46
2021/05/11 14:05:16;;;;;;;1.50;0.88;;;25.40;50.50;;;;;;5023344;28;20065;-46
2021/05/11 14:07:43;;;;;;;0.90;0.70;;;25.40;50.60;;;;;;5024680;28;20894;-45
2021/05/11 14:10:09;;;;;;;1.80;0.90;;;25.40;50.70;;;;;;5021048;28;20074;-47
2021/05/11 14:12:36;;;;;;;1.98;1.10;;;25.40;50.60;;;;;;5022447;28;20057;-48
2021/05/11 14:15:04;;;;;;;2.55;1.05;;;25.40;50.60;;;;;;5030118;28;20035;-47
2021/05/11 14:17:30;;;;;;;3.13;0.98;;;25.40;50.70;;;;;;5022223;28;20618;-47
2021/05/11 14:19:56;;;;;;;0.63;0.50;;;25.40;50.60;;;;;;5030215;28;20112;-46
2021/05/11 14:22:23;;;;;;;2.05;1.00;;;25.40;50.70;;;;;;5032299;28;20478;-46
2021/05/11 14:24:50;;;;;;;1.95;1.20;;;25.40;50.60;;;;;;5033528;28;20028;-47
2021/05/11 14:27:16;;;;;;;1.77;0.95;;;25.40;50.70;;;;;;5028711;28;20036;-47
2021/05/11 14:29:43;;;;;;;1.67;0.90;;;25.40;50.70;;;;;;5016985;28;21649;-48
2021/05/11 14:32:10;;;;;;;5.82;1.35;;;25.50;50.70;;;;;;5030572;28;20040;-46
2021/05/11 14:34:36;;;;;;;1.95;0.85;;;25.50;50.70;;;;;;5041450;28;20106;-46
2021/05/11 14:37:04;;;;;;;1.33;0.88;;;25.40;50.60;;;;;;5021060;28;20076;-49
2021/05/11 14:39:30;;;;;;;1.33;0.73;;;25.40;50.60;;;;;;5022426;28;20048;-49
2021/05/11 14:41:57;;;;;;;1.65;0.68;;;25.40;50.60;;;;;;5030793;28;20029;-45
2021/05/11 14:44:27;;;;;;;1.55;1.05;;;25.40;50.70;;;;;;5032353;28;20045;-49
2021/05/11 14:46:55;;;;;;;2.20;1.13;;;25.40;50.70;;;;;;5025736;28;20033;-46
2021/05/11 14:49:22;;;;;;;1.38;0.90;;;25.40;50.70;;;;;;5021140;28;20029;-47
2021/05/11 14:51:48;;;;;;;1.10;0.80;;;25.40;50.60;;;;;;5017649;28;20083;-47
2021/05/11 14:54:14;;;;;;;3.05;1.05;;;25.40;50.70;;;;;;5028385;28;20033;-44
2021/05/11 14:56:40;;;;;;;1.10;0.80;;;25.40;50.90;;;;;;5029507;28;20034;-44
2021/05/11 14:59:12;;;;;;;1.23;0.60;;;25.40;50.80;;;;;;5027052;28;20072;-47
2021/05/11 15:01:39;;;;;;;12.15;0.70;;;25.40;50.80;;;;;;5037098;28;20025;-47
2021/05/11 15:04:06;;;;;;;1.45;0.70;;;25.40;50.60;;;;;;5020447;28;20113;-48
2021/05/11 15:06:33;;;;;;;1.67;0.85;;;25.40;50.60;;;;;;5022886;28;20030;-50
2021/05/11 15:09:00;;;;;;;1.55;0.82;;;25.40;51.10;;;;;;5026480;28;20022;-50
2021/05/11 15:11:26;;;;;;;3.05;0.90;;;25.40;50.60;;;;;;5034852;28;20076;-49
2021/05/11 15:13:54;;;;;;;2.00;1.10;;;25.40;50.60;;;;;;5035257;28;20481;-49
2021/05/11 15:16:24;;;;;;;2.47;1.02;;;25.40;50.40;;;;;;5018735;28;20021;-48
2021/05/11 15:18:51;;;;;;;1.15;1.05;;;25.40;50.60;;;;;;5029618;28;20112;-46
2021/05/11 15:21:17;;;;;;;1.63;0.68;;;25.40;50.60;;;;;;5033668;28;20026;-46
2021/05/11 15:23:44;;;;;;;1.42;0.90;;;25.40;50.60;;;;;;5024141;28;20490;-49
2021/05/11 15:26:17;;;;;;;3.28;1.17;;;25.40;50.60;;;;;;5021808;28;20045;-46
2021/05/11 15:28:43;;;;;;;1.17;1.00;;;25.40;50.70;;;;;;5026056;28;20095;-47
2021/05/11 15:31:09;;;;;;;1.48;0.90;;;25.40;50.70;;;;;;5026663;28;20585;-48
2021/05/11 15:33:35;;;;;;;1.42;0.80;;;25.40;50.60;;;;;;5018964;28;20501;-51
2021/05/11 15:36:02;;;;;;;1.45;0.63;;;25.50;50.70;;;;;;5026732;28;20030;-49
2021/05/11 15:38:31;;;;;;;1.52;0.93;;;25.40;50.60;;;;;;5025962;28;20021;-46
2021/05/11 15:40:58;;;;;;;2.45;0.80;;;25.40;50.70;;;;;;5028552;28;20460;-51
2021/05/11 15:43:25;;;;;;;1.38;0.75;;;25.40;50.80;;;;;;5033080;28;20028;-47
2021/05/11 15:45:51;;;;;;;2.80;0.98;;;25.40;50.70;;;;;;5017125;28;20044;-46
2021/05/11 15:48:17;;;;;;;2.00;0.88;;;25.40;50.90;;;;;;5026319;28;20037;-46
2021/05/11 15:50:45;;;;;;;2.63;1.05;;;25.40;50.80;;;;;;5032545;28;20555;-47
2021/05/11 15:53:13;;;;;;;1.20;1.10;;;25.30;50.80;;;;;;5041127;28;20029;-46
2021/05/11 15:55:41;;;;;;;2.35;0.77;;;25.30;50.90;;;;;;5021168;28;20055;-46
2021/05/11 15:58:09;;;;;;;1.63;1.23;;;25.30;50.80;;;;;;5015896;28;20021;-46
2021/05/11 16:00:39;;;;;;;4.45;1.00;;;25.30;50.80;;;;;;5013631;28;20713;-46
2021/05/11 16:03:06;;;;;;;3.15;0.90;;;25.30;50.80;;;;;;5015737;28;20499;-47
2021/05/11 16:05:34;;;;;;;2.45;1.00;;;25.30;50.80;;;;;;5018960;28;20038;-47
2021/05/11 16:08:01;;;;;;;3.35;1.13;;;25.20;51.40;;;;;;5033802;28;20029;-45
2021/05/11 16:10:28;;;;;;;2.33;0.90;;;25.20;50.90;;;;;;5034439;28;20032;-46
2021/05/11 16:12:55;;;;;;;2.33;1.10;;;25.20;51.00;;;;;;5011273;28;20052;-45
2021/05/11 16:15:22;;;;;;;2.08;1.25;;;25.20;50.90;;;;;;5019423;28;20059;-46
2021/05/11 16:17:48;;;;;;;2.42;1.25;;;25.20;51.00;;;;;;5025661;28;20013;-46
2021/05/11 16:20:15;;;;;;;3.95;1.02;;;25.20;51.00;;;;;;5017335;28;20076;-45
2021/05/11 16:22:41;;;;;;;2.20;0.98;;;25.20;51.00;;;;;;5013428;28;20029;-45
2021/05/11 16:25:09;;;;;;;2.20;1.00;;;25.20;50.90;;;;;;5024205;28;20070;-46
2021/05/11 16:27:36;;;;;;;2.15;0.88;;;25.20;50.80;;;;;;5027462;28;20025;-45
2021/05/11 16:30:03;;;;;;;1.20;0.80;;;25.20;50.80;;;;;;5035493;28;20065;-47
2021/05/11 16:32:29;;;;;;;2.42;1.13;;;25.20;50.80;;;;;;5017594;28;20018;-46
2021/05/11 16:34:55;;;;;;;1.33;0.80;;;25.20;50.80;;;;;;5013314;28;20021;-47
2021/05/11 16:37:22;;;;;;;2.65;0.70;;;25.20;50.90;;;;;;5014244;28;20489;-46
2021/05/11 16:39:48;;;;;;;5.68;0.90;;;25.20;50.90;;;;;;5042706;28;20033;-46
2021/05/11 16:42:14;;;;;;;1.30;0.60;;;25.20;51.00;;;;;;5011776;28;20034;-46
2021/05/11 16:44:40;;;;;;;2.78;1.08;;;25.20;50.90;;;;;;5020862;28;20030;-47
2021/05/11 16:47:06;;;;;;;2.13;1.10;;;25.20;50.90;;;;;;5015435;28;20125;-46
2021/05/11 16:49:32;;;;;;;1.55;0.75;;;25.20;50.90;;;;;;5032916;28;20152;-47
2021/05/11 16:51:58;;;;;;;3.20;0.80;;;25.20;50.90;;;;;;5027950;28;20384;-48
2021/05/11 16:54:24;;;;;;;2.58;0.90;;;25.20;50.90;;;;;;5030121;28;20029;-47
2021/05/11 16:56:50;;;;;;;2.53;0.80;;;25.20;50.90;;;;;;5027058;28;20530;-48